createdAt,value
2023-03-08T00:02:05.254Z,98214.94
2023-03-08T00:04:31.981Z,98214.94
2023-03-08T00:06:58.749Z,98214.06
2023-03-08T00:09:25.424Z,98210.91
2023-03-08T00:11:52.185Z,98214.47
2023-03-08T00:14:20.628Z,98216.94
2023-03-08T00:16:47.428Z,98213.75
2023-03-08T00:19:14.290Z,98219.16
2023-03-08T00:21:41.049Z,98217.66
2023-03-08T00:24:07.900Z,98222.09
2023-03-08T00:26:34.701Z,98214.47
2023-03-08T00:29:01.580Z,98212.31
2023-03-08T00:31:28.329Z,98204.94
2023-03-08T00:33:55.545Z,98205.59
2023-03-08T00:36:22.965Z,98207.72
2023-03-08T00:38:51.199Z,98215.41
2023-03-08T00:41:18.630Z,98213.34
2023-03-08T00:43:45.923Z,98213.97
2023-03-08T00:46:13.689Z,98219.47
2023-03-08T00:48:41.032Z,98210.91
2023-03-08T00:51:08.582Z,98206.34
2023-03-08T00:53:35.331Z,98202.38
2023-03-08T00:56:02.133Z,98202.13
2023-03-08T00:58:30.355Z,98208.63
2023-03-08T01:00:57.781Z,98204.66
2023-03-08T01:03:25.225Z,98216.78
2023-03-08T01:05:54.408Z,98215.13
2023-03-08T01:08:22.069Z,98220.03
2023-03-08T01:10:54.620Z,98213.81
2023-03-08T01:13:21.541Z,98216.63
2023-03-08T01:15:48.305Z,98225.66
2023-03-08T01:18:15.170Z,98223.22
2023-03-08T01:20:42.036Z,98232.72
2023-03-08T01:23:09.237Z,98225.41
2023-03-08T01:25:36.246Z,98226.03
2023-03-08T01:28:03.318Z,98234.59
2023-03-08T01:30:30.086Z,98232.56
2023-03-08T01:32:56.860Z,98229.81
2023-03-08T01:35:23.613Z,98236.69
2023-03-08T01:37:53.561Z,98238.47
2023-03-08T01:40:21.352Z,98230.22
2023-03-08T01:42:48.188Z,98230.94
2023-03-08T01:45:52.225Z,98229.56
2023-03-08T01:48:20.810Z,98233.25
2023-03-08T01:50:47.669Z,98239.50
2023-03-08T01:53:14.645Z,98241.81
2023-03-08T01:55:41.534Z,98251.31
2023-03-08T01:58:08.401Z,98245.47
2023-03-08T02:00:35.167Z,98252.06
2023-03-08T02:03:05.125Z,98261.72
2023-03-08T02:05:31.873Z,98262.31
2023-03-08T02:07:58.546Z,98262.31
2023-03-08T02:10:25.465Z,98260.50
2023-03-08T02:12:52.245Z,98257.47
2023-03-08T02:15:20.501Z,98258.88
2023-03-08T02:17:47.564Z,98266.06
2023-03-08T02:20:21.203Z,98258.91
2023-03-08T02:22:50.175Z,98256.16
2023-03-08T02:25:19.275Z,98255.69
2023-03-08T02:27:46.302Z,98264.41
2023-03-08T02:30:15.022Z,98273.31
2023-03-08T02:32:42.087Z,98270.72
2023-03-08T02:35:09.688Z,98284.59
2023-03-08T02:37:36.382Z,98281.25
2023-03-08T02:40:03.529Z,98279.84
2023-03-08T02:42:30.324Z,98287.94
2023-03-08T02:44:57.159Z,98283.97
2023-03-08T02:47:23.913Z,98284.41
2023-03-08T02:49:50.730Z,98279.69
2023-03-08T02:52:17.693Z,98293.44
2023-03-08T02:54:44.427Z,98291.63
2023-03-08T02:57:11.142Z,98293.75
2023-03-08T02:59:37.931Z,98294.81
2023-03-08T03:02:04.849Z,98297.00
2023-03-08T03:04:32.362Z,98304.94
2023-03-08T03:06:59.843Z,98304.31
2023-03-08T03:09:27.410Z,98316.84
2023-03-08T03:11:54.139Z,98315.31
2023-03-08T03:14:20.858Z,98320.53
2023-03-08T03:16:47.736Z,98318.06
2023-03-08T03:19:14.660Z,98333.22
2023-03-08T03:21:41.646Z,98340.25
2023-03-08T03:24:08.471Z,98342.09
2023-03-08T03:26:35.213Z,98343.91
2023-03-08T03:29:01.919Z,98349.44
2023-03-08T03:31:28.744Z,98357.81
2023-03-08T03:33:55.568Z,98365.94
2023-03-08T03:36:22.747Z,98356.91
2023-03-08T03:38:49.785Z,98360.59
2023-03-08T03:41:20.122Z,98358.16
2023-03-08T03:43:47.300Z,98352.03
2023-03-08T03:46:16.308Z,98357.22
2023-03-08T03:48:43.453Z,98363.63
2023-03-08T03:51:13.916Z,98361.22
2023-03-08T03:53:40.885Z,98364.41
2023-03-08T03:56:11.058Z,98358.16
2023-03-08T03:58:38.086Z,98360.13
2023-03-08T04:01:15.489Z,98352.47
2023-03-08T04:03:42.572Z,98352.19
2023-03-08T04:06:23.589Z,98351.56
2023-03-08T04:08:53.397Z,98341.03
2023-03-08T04:11:23.838Z,98336.25
2023-03-08T04:13:50.696Z,98336.75
2023-03-08T04:16:22.859Z,98329.69
2023-03-08T04:18:54.317Z,98326.34
2023-03-08T04:21:21.833Z,98328.00
2023-03-08T04:23:48.675Z,98330.75
2023-03-08T04:26:15.690Z,98334.56
2023-03-08T04:28:42.998Z,98346.94
2023-03-08T04:31:12.573Z,98358.41
2023-03-08T04:33:39.350Z,98368.78
2023-03-08T04:36:06.409Z,98367.44
2023-03-08T04:38:36.399Z,98373.41
2023-03-08T04:41:21.899Z,98369.59
2023-03-08T04:43:50.889Z,98378.00
2023-03-08T04:46:19.831Z,98380.16
2023-03-08T04:48:47.016Z,98393.44
2023-03-08T04:51:15.609Z,98385.06
2023-03-08T04:53:44.572Z,98394.97
2023-03-08T04:56:13.139Z,98399.72
2023-03-08T04:58:39.919Z,98391.59
2023-03-08T05:01:24.643Z,98388.41
2023-03-08T05:03:52.496Z,98391.47
2023-03-08T05:06:20.759Z,98386.44
2023-03-08T05:08:47.585Z,98402.91
2023-03-08T05:11:20.032Z,98388.56
2023-03-08T05:13:46.754Z,98391.47
2023-03-08T05:16:13.632Z,98383.19
2023-03-08T05:18:40.467Z,98384.72
2023-03-08T05:21:11.485Z,98385.03
2023-03-08T05:23:38.228Z,98385.94
2023-03-08T05:26:05.930Z,98390.56
2023-03-08T05:28:34.762Z,98390.09
2023-03-08T05:31:04.928Z,98391.78
2023-03-08T05:33:32.305Z,98398.19
2023-03-08T05:35:59.348Z,98407.50
2023-03-08T05:38:26.178Z,98405.94
2023-03-08T05:40:53.072Z,98420.34
2023-03-08T05:43:20.154Z,98413.09
2023-03-08T05:46:04.986Z,98415.84
2023-03-08T05:48:34.078Z,98414.41
2023-03-08T05:51:12.227Z,98429.06
2023-03-08T05:53:39.279Z,98429.78
2023-03-08T05:56:14.815Z,98431.91
2023-03-08T05:58:43.588Z,98441.31
2023-03-08T06:01:22.496Z,98440.78
2023-03-08T06:03:51.383Z,98441.94
2023-03-08T06:06:19.248Z,98459.19
2023-03-08T06:08:46.122Z,98459.00
2023-03-08T06:11:13.099Z,98464.91
2023-03-08T06:13:40.485Z,98467.59
2023-03-08T06:16:07.269Z,98465.69
2023-03-08T06:18:36.551Z,98466.16
2023-03-08T06:21:14.468Z,98469.25
2023-03-08T06:23:41.521Z,98469.75
2023-03-08T06:26:08.743Z,98478.72
2023-03-08T06:28:36.168Z,98486.84
2023-03-08T06:31:03.215Z,98486.00
2023-03-08T06:33:31.950Z,98486.56
2023-03-08T06:36:05.915Z,98483.41
2023-03-08T06:38:34.930Z,98486.34
2023-03-08T06:41:02.137Z,98496.38
2023-03-08T06:43:29.494Z,98499.00
2023-03-08T06:45:57.164Z,98504.31
2023-03-08T06:48:25.893Z,98506.06
2023-03-08T06:50:53.126Z,98502.56
2023-03-08T06:53:20.404Z,98513.47
2023-03-08T06:55:47.143Z,98507.25
2023-03-08T06:58:13.892Z,98514.44
2023-03-08T07:00:40.617Z,98512.59
2023-03-08T07:03:07.615Z,98516.38
2023-03-08T07:05:34.444Z,98521.84
2023-03-08T07:08:01.549Z,98517.69
2023-03-08T07:10:28.329Z,98525.06
2023-03-08T07:12:56.138Z,98530.56
2023-03-08T07:15:24.358Z,98537.63
2023-03-08T07:17:55.719Z,98546.88
2023-03-08T07:20:24.254Z,98550.97
2023-03-08T07:22:51.302Z,98553.13
2023-03-08T07:25:20.014Z,98559.16
2023-03-08T07:27:47.139Z,98554.94
2023-03-08T07:30:15.791Z,98548.53
2023-03-08T07:32:43.090Z,98550.72
2023-03-08T07:35:12.376Z,98549.81
